Time;durP1;ratioP1;P1;durP2;ratioP2;P2;SDS_P1;SDS_P2;PMS_P1;PMS_P2;Temp;Humidity;BMP_temperature;BMP_pressure;BME280_temperature;BME280_humidity;BME280_pressure;Samples;Min_cycle;Max_cycle;Signal;HPM_P1;HPM_P2
2023/06/29 06:02:45;;;;;;;6.80;4.63;;;;;;;;;;10454276;28;20030;-85
2023/06/29 06:07:49;;;;;;;4.13;3.00;;;;;;;;;;10434608;28;20447;-84
2023/06/29 06:13:18;;;;;;;4.85;3.10;;;;;;;;;;10436808;28;20398;-83
2023/06/29 06:18:39;;;;;;;4.63;3.63;;;;;;;;;;10433034;28;20048;-84
2023/06/29 06:30:04;;;;;;;6.55;4.88;;;;;;;;;;10285875;28;20038;-83
2023/06/29 06:35:07;;;;;;;6.07;4.15;;;;;;;;;;10405267;28;20120;-83
2023/06/29 06:40:09;;;;;;;7.25;4.20;;;;;;;;;;10434331;28;20578;-84
2023/06/29 06:45:10;;;;;;;7.72;4.78;;;;;;;;;;10454727;28;20065;-85
2023/06/29 06:50:11;;;;;;;5.60;3.83;;;;;;;;;;10433925;28;20018;-84
2023/06/29 06:55:12;;;;;;;6.40;4.50;;;;;;;;;;10436910;28;20155;-84
2023/06/29 07:00:14;;;;;;;6.88;4.80;;;;;;;;;;10421471;28;20056;-84
2023/06/29 07:05:15;;;;;;;9.82;6.00;;;;;;;;;;10424243;28;20021;-83
2023/06/29 07:10:16;;;;;;;13.52;8.30;;;;;;;;;;10417116;28;20076;-82
2023/06/29 07:15:17;;;;;;;7.43;5.43;;;;;;;;;;10417431;28;20056;-83
2023/06/29 07:20:18;;;;;;;9.75;6.10;;;;;;;;;;10421880;28;20041;-83
2023/06/29 07:25:19;;;;;;;12.80;7.82;;;;;;;;;;10413166;28;20108;-83
2023/06/29 07:30:20;;;;;;;10.82;7.25;;;;;;;;;;10412242;28;20029;-84
2023/06/29 07:35:21;;;;;;;11.88;7.72;;;;;;;;;;10415095;28;20483;-84
2023/06/29 07:40:22;;;;;;;13.50;9.20;;;;;;;;;;10408503;28;20025;-83
2023/06/29 07:45:26;;;;;;;11.23;9.02;;;;;;;;;;10409857;28;20507;-84
2023/06/29 07:50:34;;;;;;;9.80;8.50;;;;;;;;;;10428050;28;20022;-84
2023/06/29 07:55:44;;;;;;;10.85;9.20;;;;;;;;;;10411423;28;20065;-84
2023/06/29 08:00:48;;;;;;;14.65;9.63;;;;;;;;;;10415003;28;20060;-84
2023/06/29 08:05:52;;;;;;;12.65;9.23;;;;;;;;;;10417647;28;20022;-84
2023/06/29 08:10:53;;;;;;;16.45;11.60;;;;;;;;;;10445205;28;20020;-84
2023/06/29 08:15:54;;;;;;;13.20;9.93;;;;;;;;;;10409883;28;20059;-83
2023/06/29 08:21:06;;;;;;;12.93;10.27;;;;;;;;;;10423399;28;20408;-84
2023/06/29 08:26:07;;;;;;;15.07;10.82;;;;;;;;;;10404215;28;20051;-84
2023/06/29 08:31:14;;;;;;;14.35;9.75;;;;;;;;;;10403537;28;20452;-86
2023/06/29 08:36:22;;;;;;;16.40;10.88;;;;;;;;;;10405669;28;20025;-85
2023/06/29 08:41:23;;;;;;;13.57;10.20;;;;;;;;;;10404840;28;20028;-88
2023/06/29 08:46:31;;;;;;;11.88;9.68;;;;;;;;;;10414898;28;20037;-83
2023/06/29 08:51:34;;;;;;;15.27;10.27;;;;;;;;;;10431575;28;20025;-83
2023/06/29 08:56:35;;;;;;;15.23;11.05;;;;;;;;;;10408652;28;20099;-84
2023/06/29 09:01:38;;;;;;;15.07;11.57;;;;;;;;;;10406689;28;20392;-84
2023/06/29 09:12:54;;;;;;;15.40;10.88;;;;;;;;;;10419348;28;20435;-88
2023/06/29 09:24:31;;;;;;;14.10;11.10;;;;;;;;;;10376669;28;20034;-85
2023/06/29 09:29:56;;;;;;;13.43;10.73;;;;;;;;;;10417790;28;20069;-88
2023/06/29 09:40:47;;;;;;;;;;;;;;;;;;10450514;28;20037;-89
2023/06/29 09:57:26;;;;;;;14.40;9.43;;;;;;;;;;10416424;28;20053;-89
2023/06/29 10:03:09;;;;;;;18.48;9.35;;;;;;;;;;10412589;28;20038;-90
2023/06/29 10:14:02;;;;;;;14.20;10.18;;;;;;;;;;10416444;28;20021;-90
2023/06/29 10:19:08;;;;;;;14.07;10.02;;;;;;;;;;10416690;28;20044;-90
2023/06/29 10:24:10;;;;;;;13.13;9.43;;;;;;;;;;10400215;28;20018;-89
2023/06/29 10:29:14;;;;;;;11.40;9.35;;;;;;;;;;10408624;28;20487;-89
2023/06/29 10:34:22;;;;;;;14.18;10.57;;;;;;;;;;10403389;28;20029;-86
2023/06/29 10:39:59;;;;;;;16.38;11.15;;;;;;;;;;10408600;28;20031;-89
2023/06/29 10:45:38;;;;;;;12.13;9.25;;;;;;;;;;10327064;28;20034;-88
2023/06/29 10:51:00;;;;;;;13.20;9.45;;;;;;;;;;10407755;28;20041;-88
2023/06/29 10:56:02;;;;;;;15.98;10.43;;;;;;;;;;10399037;28;20037;-89
2023/06/29 11:01:03;;;;;;;16.98;12.15;;;;;;;;;;10423630;28;20156;-89
2023/06/29 11:06:15;;;;;;;18.50;13.43;;;;;;;;;;10425057;28;20041;-88
2023/06/29 11:11:16;;;;;;;14.88;11.73;;;;;;;;;;10437648;28;20025;-88
2023/06/29 11:16:17;;;;;;;18.15;13.13;;;;;;;;;;10444089;28;20041;-87
2023/06/29 11:21:21;;;;;;;18.58;13.77;;;;;;;;;;10435445;28;20029;-88
2023/06/29 11:26:23;;;;;;;19.75;13.32;;;;;;;;;;10425416;28;20029;-89
2023/06/29 11:31:30;;;;;;;17.00;13.27;;;;;;;;;;10423793;28;20036;-89
2023/06/29 11:43:08;;;;;;;17.30;13.30;;;;;;;;;;10260218;28;20027;-88
2023/06/29 11:53:50;;;;;;;17.63;13.82;;;;;;;;;;10252565;29;20110;-87
2023/06/29 12:04:29;;;;;;;18.50;14.75;;;;;;;;;;10531642;22;20056;-82
2023/06/29 12:09:31;;;;;;;19.17;13.23;;;;;;;;;;10494880;28;20032;-82
2023/06/29 12:14:33;;;;;;;17.70;14.10;;;;;;;;;;10495757;28;20033;-80
2023/06/29 12:19:36;;;;;;;17.05;13.32;;;;;;;;;;10494205;28;20038;-81
2023/06/29 12:24:39;;;;;;;18.70;13.90;;;;;;;;;;10514482;28;20029;-84
2023/06/29 12:29:40;;;;;;;16.75;13.35;;;;;;;;;;10493488;28;20024;-80
2023/06/29 12:34:41;;;;;;;16.48;13.85;;;;;;;;;;10491098;28;20436;-81
2023/06/29 12:39:42;;;;;;;18.05;14.98;;;;;;;;;;10492419;28;20028;-83
2023/06/29 12:44:43;;;;;;;18.10;14.73;;;;;;;;;;10496330;28;20058;-80
2023/06/29 12:49:45;;;;;;;17.05;14.48;;;;;;;;;;10488760;28;20454;-82
2023/06/29 12:54:47;;;;;;;15.68;13.25;;;;;;;;;;10489671;28;20029;-81
2023/06/29 12:59:48;;;;;;;15.00;13.27;;;;;;;;;;10490109;28;20494;-81
2023/06/29 13:04:52;;;;;;;15.95;14.18;;;;;;;;;;10492522;28;20052;-82
2023/06/29 13:09:54;;;;;;;17.98;15.50;;;;;;;;;;10491959;28;20081;-82
2023/06/29 13:14:55;;;;;;;19.08;15.55;;;;;;;;;;10490985;28;20035;-81
2023/06/29 13:19:56;;;;;;;18.92;15.25;;;;;;;;;;10489772;28;20104;-83
2023/06/29 13:24:57;;;;;;;19.80;14.18;;;;;;;;;;10487623;28;20058;-80
2023/06/29 13:29:58;;;;;;;17.80;14.85;;;;;;;;;;10489436;28;20036;-81
2023/06/29 13:34:59;;;;;;;18.67;15.52;;;;;;;;;;10490857;28;20028;-81
2023/06/29 13:40:00;;;;;;;20.17;15.68;;;;;;;;;;10498493;28;20096;-82
2023/06/29 13:45:02;;;;;;;19.63;15.50;;;;;;;;;;10543465;28;20036;-80
2023/06/29 13:50:03;;;;;;;19.45;15.00;;;;;;;;;;10518263;28;20074;-81
2023/06/29 13:55:04;;;;;;;18.52;15.98;;;;;;;;;;10486813;28;20042;-81
2023/06/29 14:00:07;;;;;;;17.70;15.77;;;;;;;;;;10488469;28;20025;-80
2023/06/29 14:05:23;;;;;;;19.88;15.32;;;;;;;;;;10491613;28;20032;-81
2023/06/29 14:10:26;;;;;;;19.35;15.85;;;;;;;;;;10508037;28;20036;-81
2023/06/29 14:15:27;;;;;;;19.13;15.90;;;;;;;;;;10518647;28;20021;-83
2023/06/29 14:20:28;;;;;;;19.63;15.65;;;;;;;;;;10502256;28;20025;-83
2023/06/29 14:25:30;;;;;;;18.10;14.35;;;;;;;;;;10498926;28;20107;-83
2023/06/29 14:30:31;;;;;;;20.20;15.15;;;;;;;;;;10497608;28;20108;-82
2023/06/29 14:35:32;;;;;;;17.55;15.07;;;;;;;;;;10499037;28;20107;-82
2023/06/29 14:40:33;;;;;;;18.42;14.63;;;;;;;;;;10505969;28;20021;-82
2023/06/29 14:45:52;;;;;;;18.35;14.60;;;;;;;;;;10496135;28;20031;-83
2023/06/29 14:50:54;;;;;;;14.98;12.93;;;;;;;;;;10497982;28;20044;-83
2023/06/29 14:56:08;;;;;;;17.92;14.63;;;;;;;;;;10496231;28;20021;-83
2023/06/29 15:01:09;;;;;;;17.35;13.77;;;;;;;;;;10497671;28;20039;-83
2023/06/29 15:06:10;;;;;;;14.48;12.82;;;;;;;;;;10497898;28;20032;-83
2023/06/29 15:11:11;;;;;;;16.42;14.18;;;;;;;;;;10502016;28;20102;-83
2023/06/29 15:16:12;;;;;;;17.48;13.90;;;;;;;;;;10514665;28;20024;-82
2023/06/29 15:21:15;;;;;;;15.88;13.73;;;;;;;;;;10522982;28;20044;-83
2023/06/29 15:26:22;;;;;;;17.02;14.35;;;;;;;;;;10521137;28;20092;-80
2023/06/29 15:31:24;;;;;;;18.13;14.15;;;;;;;;;;10514242;28;20039;-83
2023/06/29 15:36:25;;;;;;;21.90;15.02;;;;;;;;;;10495359;28;20028;-83
2023/06/29 15:41:26;;;;;;;17.85;13.82;;;;;;;;;;10496875;28;20115;-83
2023/06/29 15:46:33;;;;;;;18.17;14.63;;;;;;;;;;10496273;28;20024;-83
2023/06/29 15:51:34;;;;;;;16.65;14.35;;;;;;;;;;10513789;28;20036;-84
2023/06/29 15:56:35;;;;;;;17.40;14.63;;;;;;;;;;10495999;28;20115;-84
2023/06/29 16:01:37;;;;;;;18.65;14.23;;;;;;;;;;10499414;28;20036;-84
2023/06/29 16:06:38;;;;;;;16.20;13.68;;;;;;;;;;10495722;28;20028;-81
2023/06/29 16:11:39;;;;;;;18.00;15.25;;;;;;;;;;10494788;28;20119;-84
2023/06/29 16:16:40;;;;;;;15.93;14.23;;;;;;;;;;10496785;28;20020;-84
2023/06/29 16:21:42;;;;;;;18.52;14.82;;;;;;;;;;10497116;28;20036;-84
2023/06/29 16:43:45;;;;;;;17.98;14.18;;;;;;;;;;10504114;28;20109;-86
2023/06/29 17:00:16;;;;;;;21.88;17.02;;;;;;;;;;10507849;28;20039;-87
2023/06/29 17:05:18;;;;;;;21.35;17.15;;;;;;;;;;10526871;28;20040;-87
2023/06/29 17:10:19;;;;;;;20.88;16.60;;;;;;;;;;10510551;28;20495;-87
2023/06/29 17:15:20;;;;;;;21.48;17.42;;;;;;;;;;10486249;28;20513;-87
2023/06/29 17:20:22;;;;;;;21.85;17.48;;;;;;;;;;10483961;28;20517;-87
2023/06/29 17:25:23;;;;;;;22.65;18.20;;;;;;;;;;10499595;28;20066;-87
2023/06/29 17:30:24;;;;;;;23.52;18.73;;;;;;;;;;10506846;28;20028;-87
2023/06/29 17:35:25;;;;;;;22.25;18.38;;;;;;;;;;10511971;28;20024;-87
2023/06/29 17:40:26;;;;;;;24.25;19.10;;;;;;;;;;10512439;28;20036;-87
2023/06/29 17:45:27;;;;;;;24.98;20.30;;;;;;;;;;10510209;28;20035;-87
2023/06/29 17:50:28;;;;;;;25.77;20.27;;;;;;;;;;10498187;28;20535;-87
2023/06/29 17:55:29;;;;;;;23.55;18.35;;;;;;;;;;10486254;28;20035;-87
